sensor_id;sensor_type;location;lat;lon;timestamp;P1;durP1;ratioP1;P2;durP2;ratioP2
8640;SDS011;4358;42.100;25.222;2024-02-21T00:01:27;22.37;;;15.50;;
8640;SDS011;4358;42.100;25.222;2024-02-21T00:03:54;24.33;;;14.80;;
8640;SDS011;4358;42.100;25.222;2024-02-21T00:06:21;25.37;;;15.43;;
8640;SDS011;4358;42.100;25.222;2024-02-21T00:08:48;24.00;;;15.60;;
8640;SDS011;4358;42.100;25.222;2024-02-21T00:11:15;23.23;;;15.67;;
8640;SDS011;4358;42.100;25.222;2024-02-21T00:13:43;23.43;;;15.70;;
8640;SDS011;4358;42.100;25.222;2024-02-21T00:16:09;24.27;;;16.63;;
8640;SDS011;4358;42.100;25.222;2024-02-21T00:18:37;23.63;;;15.83;;
8640;SDS011;4358;42.100;25.222;2024-02-21T00:21:04;28.13;;;16.93;;
8640;SDS011;4358;42.100;25.222;2024-02-21T00:23:30;26.23;;;17.27;;
8640;SDS011;4358;42.100;25.222;2024-02-21T00:25:57;24.80;;;16.80;;
8640;SDS011;4358;42.100;25.222;2024-02-21T00:28:24;27.97;;;18.40;;
8640;SDS011;4358;42.100;25.222;2024-02-21T00:30:52;28.07;;;17.73;;
8640;SDS011;4358;42.100;25.222;2024-02-21T00:33:19;29.67;;;20.90;;
8640;SDS011;4358;42.100;25.222;2024-02-21T00:35:46;32.60;;;23.07;;
8640;SDS011;4358;42.100;25.222;2024-02-21T00:38:13;29.33;;;20.00;;
8640;SDS011;4358;42.100;25.222;2024-02-21T00:40:40;29.60;;;20.90;;
8640;SDS011;4358;42.100;25.222;2024-02-21T00:43:08;32.00;;;23.10;;
8640;SDS011;4358;42.100;25.222;2024-02-21T00:45:34;31.27;;;21.47;;
8640;SDS011;4358;42.100;25.222;2024-02-21T00:48:03;33.00;;;24.83;;
8640;SDS011;4358;42.100;25.222;2024-02-21T00:50:30;33.97;;;24.37;;
8640;SDS011;4358;42.100;25.222;2024-02-21T00:52:57;37.40;;;27.33;;
8640;SDS011;4358;42.100;25.222;2024-02-21T00:55:24;32.17;;;22.40;;
8640;SDS011;4358;42.100;25.222;2024-02-21T00:57:51;33.90;;;22.17;;
8640;SDS011;4358;42.100;25.222;2024-02-21T01:00:18;32.10;;;22.47;;
8640;SDS011;4358;42.100;25.222;2024-02-21T01:02:45;32.47;;;22.43;;
8640;SDS011;4358;42.100;25.222;2024-02-21T01:05:13;35.83;;;25.70;;
8640;SDS011;4358;42.100;25.222;2024-02-21T01:07:40;33.77;;;24.03;;
8640;SDS011;4358;42.100;25.222;2024-02-21T01:10:07;34.87;;;25.23;;
8640;SDS011;4358;42.100;25.222;2024-02-21T01:12:35;37.27;;;26.67;;
8640;SDS011;4358;42.100;25.222;2024-02-21T01:15:02;40.93;;;30.17;;
8640;SDS011;4358;42.100;25.222;2024-02-21T01:17:29;43.50;;;29.97;;
8640;SDS011;4358;42.100;25.222;2024-02-21T01:19:56;43.10;;;28.97;;
8640;SDS011;4358;42.100;25.222;2024-02-21T01:22:24;34.00;;;22.00;;
8640;SDS011;4358;42.100;25.222;2024-02-21T01:24:51;48.40;;;27.13;;
8640;SDS011;4358;42.100;25.222;2024-02-21T01:27:18;48.37;;;27.43;;
8640;SDS011;4358;42.100;25.222;2024-02-21T01:29:45;60.23;;;29.20;;
8640;SDS011;4358;42.100;25.222;2024-02-21T01:32:14;53.83;;;29.57;;
8640;SDS011;4358;42.100;25.222;2024-02-21T01:34:41;57.63;;;28.80;;
8640;SDS011;4358;42.100;25.222;2024-02-21T01:37:08;49.73;;;27.90;;
8640;SDS011;4358;42.100;25.222;2024-02-21T01:39:36;52.20;;;28.77;;
8640;SDS011;4358;42.100;25.222;2024-02-21T01:42:03;52.33;;;31.33;;
8640;SDS011;4358;42.100;25.222;2024-02-21T01:44:31;44.77;;;27.37;;
8640;SDS011;4358;42.100;25.222;2024-02-21T01:46:58;43.57;;;26.43;;
8640;SDS011;4358;42.100;25.222;2024-02-21T01:49:25;48.67;;;24.60;;
8640;SDS011;4358;42.100;25.222;2024-02-21T01:51:52;48.00;;;27.80;;
8640;SDS011;4358;42.100;25.222;2024-02-21T01:54:19;49.27;;;28.90;;
8640;SDS011;4358;42.100;25.222;2024-02-21T01:56:48;43.33;;;29.10;;
8640;SDS011;4358;42.100;25.222;2024-02-21T01:59:14;41.40;;;26.27;;
8640;SDS011;4358;42.100;25.222;2024-02-21T02:01:42;41.40;;;25.50;;
8640;SDS011;4358;42.100;25.222;2024-02-21T02:04:10;37.17;;;23.57;;
8640;SDS011;4358;42.100;25.222;2024-02-21T02:06:38;37.77;;;24.07;;
8640;SDS011;4358;42.100;25.222;2024-02-21T02:09:06;37.10;;;24.83;;
8640;SDS011;4358;42.100;25.222;2024-02-21T02:11:33;35.50;;;24.03;;
8640;SDS011;4358;42.100;25.222;2024-02-21T02:14:01;40.83;;;24.70;;
8640;SDS011;4358;42.100;25.222;2024-02-21T02:16:28;42.73;;;26.13;;
8640;SDS011;4358;42.100;25.222;2024-02-21T02:18:55;37.57;;;22.90;;
8640;SDS011;4358;42.100;25.222;2024-02-21T02:21:23;32.73;;;22.00;;
8640;SDS011;4358;42.100;25.222;2024-02-21T02:23:57;35.00;;;22.77;;
8640;SDS011;4358;42.100;25.222;2024-02-21T02:26:24;32.30;;;20.07;;
8640;SDS011;4358;42.100;25.222;2024-02-21T02:28:51;35.77;;;22.70;;
8640;SDS011;4358;42.100;25.222;2024-02-21T02:31:17;30.73;;;20.83;;
8640;SDS011;4358;42.100;25.222;2024-02-21T02:33:44;30.20;;;21.10;;
8640;SDS011;4358;42.100;25.222;2024-02-21T02:36:11;32.20;;;20.87;;
8640;SDS011;4358;42.100;25.222;2024-02-21T02:38:38;31.73;;;20.27;;
8640;SDS011;4358;42.100;25.222;2024-02-21T02:41:06;31.30;;;21.23;;
8640;SDS011;4358;42.100;25.222;2024-02-21T02:43:33;34.47;;;22.13;;
8640;SDS011;4358;42.100;25.222;2024-02-21T02:45:59;32.90;;;21.17;;
8640;SDS011;4358;42.100;25.222;2024-02-21T02:48:26;34.90;;;23.37;;
8640;SDS011;4358;42.100;25.222;2024-02-21T02:50:53;33.10;;;21.70;;
8640;SDS011;4358;42.100;25.222;2024-02-21T02:53:20;30.87;;;20.00;;
8640;SDS011;4358;42.100;25.222;2024-02-21T02:55:46;30.67;;;21.17;;
8640;SDS011;4358;42.100;25.222;2024-02-21T02:58:14;29.60;;;20.03;;
8640;SDS011;4358;42.100;25.222;2024-02-21T03:00:41;31.07;;;21.23;;
8640;SDS011;4358;42.100;25.222;2024-02-21T03:03:08;33.57;;;21.67;;
8640;SDS011;4358;42.100;25.222;2024-02-21T03:05:35;38.10;;;21.83;;
8640;SDS011;4358;42.100;25.222;2024-02-21T03:08:01;29.90;;;22.07;;
8640;SDS011;4358;42.100;25.222;2024-02-21T03:10:32;31.43;;;19.97;;
8640;SDS011;4358;42.100;25.222;2024-02-21T03:12:59;30.23;;;21.40;;
8640;SDS011;4358;42.100;25.222;2024-02-21T03:15:27;45.67;;;26.20;;
8640;SDS011;4358;42.100;25.222;2024-02-21T03:17:54;42.10;;;23.67;;
8640;SDS011;4358;42.100;25.222;2024-02-21T03:20:20;36.60;;;22.03;;
8640;SDS011;4358;42.100;25.222;2024-02-21T03:22:47;32.47;;;22.47;;
8640;SDS011;4358;42.100;25.222;2024-02-21T03:25:14;36.27;;;22.57;;
8640;SDS011;4358;42.100;25.222;2024-02-21T03:27:41;39.90;;;23.00;;
8640;SDS011;4358;42.100;25.222;2024-02-21T03:30:08;41.37;;;26.97;;
8640;SDS011;4358;42.100;25.222;2024-02-21T03:32:37;49.00;;;32.57;;
8640;SDS011;4358;42.100;25.222;2024-02-21T03:35:04;31.67;;;22.37;;
8640;SDS011;4358;42.100;25.222;2024-02-21T03:37:32;35.17;;;22.40;;
8640;SDS011;4358;42.100;25.222;2024-02-21T03:39:58;41.77;;;24.60;;
8640;SDS011;4358;42.100;25.222;2024-02-21T03:42:25;36.33;;;24.60;;
8640;SDS011;4358;42.100;25.222;2024-02-21T03:44:54;37.40;;;24.63;;
8640;SDS011;4358;42.100;25.222;2024-02-21T03:47:21;37.50;;;23.73;;
8640;SDS011;4358;42.100;25.222;2024-02-21T03:49:49;36.77;;;24.87;;
8640;SDS011;4358;42.100;25.222;2024-02-21T03:52:16;37.83;;;24.37;;
8640;SDS011;4358;42.100;25.222;2024-02-21T03:54:43;34.33;;;24.17;;
8640;SDS011;4358;42.100;25.222;2024-02-21T03:57:10;38.03;;;25.13;;
8640;SDS011;4358;42.100;25.222;2024-02-21T03:59:37;34.43;;;23.70;;
8640;SDS011;4358;42.100;25.222;2024-02-21T04:02:05;38.13;;;24.17;;
8640;SDS011;4358;42.100;25.222;2024-02-21T04:04:33;35.80;;;24.07;;
8640;SDS011;4358;42.100;25.222;2024-02-21T04:07:04;35.77;;;23.70;;
8640;SDS011;4358;42.100;25.222;2024-02-21T04:09:32;35.47;;;23.50;;
8640;SDS011;4358;42.100;25.222;2024-02-21T04:11:59;34.23;;;23.07;;
8640;SDS011;4358;42.100;25.222;2024-02-21T04:14:26;36.83;;;24.93;;
8640;SDS011;4358;42.100;25.222;2024-02-21T04:16:53;40.70;;;28.80;;
8640;SDS011;4358;42.100;25.222;2024-02-21T04:19:20;34.47;;;24.60;;
8640;SDS011;4358;42.100;25.222;2024-02-21T04:21:47;36.90;;;23.17;;
8640;SDS011;4358;42.100;25.222;2024-02-21T04:24:15;36.20;;;23.70;;
8640;SDS011;4358;42.100;25.222;2024-02-21T04:26:42;34.10;;;24.50;;
8640;SDS011;4358;42.100;25.222;2024-02-21T04:29:09;34.03;;;23.67;;
8640;SDS011;4358;42.100;25.222;2024-02-21T04:31:36;38.23;;;24.57;;
8640;SDS011;4358;42.100;25.222;2024-02-21T04:34:03;39.93;;;24.77;;
8640;SDS011;4358;42.100;25.222;2024-02-21T04:36:29;34.43;;;25.83;;
8640;SDS011;4358;42.100;25.222;2024-02-21T04:38:56;33.87;;;24.77;;
8640;SDS011;4358;42.100;25.222;2024-02-21T04:41:25;35.17;;;25.20;;
8640;SDS011;4358;42.100;25.222;2024-02-21T04:43:51;36.73;;;26.17;;
8640;SDS011;4358;42.100;25.222;2024-02-21T04:46:18;34.97;;;25.03;;
8640;SDS011;4358;42.100;25.222;2024-02-21T04:48:45;42.97;;;25.77;;
8640;SDS011;4358;42.100;25.222;2024-02-21T04:51:12;36.57;;;26.30;;
8640;SDS011;4358;42.100;25.222;2024-02-21T04:53:39;36.57;;;24.70;;
8640;SDS011;4358;42.100;25.222;2024-02-21T04:56:06;35.80;;;24.93;;
8640;SDS011;4358;42.100;25.222;2024-02-21T04:58:37;37.53;;;25.00;;
8640;SDS011;4358;42.100;25.222;2024-02-21T05:01:04;37.70;;;25.43;;
8640;SDS011;4358;42.100;25.222;2024-02-21T05:03:31;41.87;;;26.50;;
8640;SDS011;4358;42.100;25.222;2024-02-21T05:05:58;35.83;;;25.03;;
8640;SDS011;4358;42.100;25.222;2024-02-21T05:08:25;33.63;;;23.83;;
8640;SDS011;4358;42.100;25.222;2024-02-21T05:10:52;33.43;;;23.20;;
8640;SDS011;4358;42.100;25.222;2024-02-21T05:13:19;38.87;;;27.17;;
8640;SDS011;4358;42.100;25.222;2024-02-21T05:15:47;52.87;;;38.63;;
8640;SDS011;4358;42.100;25.222;2024-02-21T05:18:14;44.23;;;29.80;;
8640;SDS011;4358;42.100;25.222;2024-02-21T05:20:40;41.50;;;27.13;;
8640;SDS011;4358;42.100;25.222;2024-02-21T05:23:07;35.47;;;24.07;;
8640;SDS011;4358;42.100;25.222;2024-02-21T05:25:34;39.60;;;26.90;;
8640;SDS011;4358;42.100;25.222;2024-02-21T05:28:01;43.50;;;23.93;;
8640;SDS011;4358;42.100;25.222;2024-02-21T05:30:31;42.97;;;26.00;;
8640;SDS011;4358;42.100;25.222;2024-02-21T05:33:03;46.10;;;28.77;;
8640;SDS011;4358;42.100;25.222;2024-02-21T05:35:30;49.30;;;31.50;;
8640;SDS011;4358;42.100;25.222;2024-02-21T05:37:58;50.37;;;27.77;;
8640;SDS011;4358;42.100;25.222;2024-02-21T05:40:25;61.83;;;30.80;;
8640;SDS011;4358;42.100;25.222;2024-02-21T05:42:52;50.90;;;33.10;;
8640;SDS011;4358;42.100;25.222;2024-02-21T05:45:19;64.37;;;36.00;;
8640;SDS011;4358;42.100;25.222;2024-02-21T05:47:46;73.17;;;35.47;;
8640;SDS011;4358;42.100;25.222;2024-02-21T05:50:14;88.83;;;40.23;;
8640;SDS011;4358;42.100;25.222;2024-02-21T05:52:42;96.97;;;46.97;;
8640;SDS011;4358;42.100;25.222;2024-02-21T05:55:09;96.93;;;42.90;;
8640;SDS011;4358;42.100;25.222;2024-02-21T05:57:36;99.57;;;43.97;;
8640;SDS011;4358;42.100;25.222;2024-02-21T06:00:03;80.87;;;44.83;;
8640;SDS011;4358;42.100;25.222;2024-02-21T06:02:32;72.90;;;43.37;;
8640;SDS011;4358;42.100;25.222;2024-02-21T06:04:59;76.00;;;45.70;;
8640;SDS011;4358;42.100;25.222;2024-02-21T06:07:27;72.23;;;43.00;;
8640;SDS011;4358;42.100;25.222;2024-02-21T06:09:54;55.57;;;36.23;;
8640;SDS011;4358;42.100;25.222;2024-02-21T06:12:20;52.03;;;31.40;;
8640;SDS011;4358;42.100;25.222;2024-02-21T06:14:47;54.50;;;34.10;;
8640;SDS011;4358;42.100;25.222;2024-02-21T06:17:14;49.07;;;29.90;;
8640;SDS011;4358;42.100;25.222;2024-02-21T06:19:42;45.97;;;29.23;;
8640;SDS011;4358;42.100;25.222;2024-02-21T06:22:09;85.67;;;48.43;;
8640;SDS011;4358;42.100;25.222;2024-02-21T06:24:38;72.20;;;40.43;;
8640;SDS011;4358;42.100;25.222;2024-02-21T06:27:05;49.23;;;32.20;;
8640;SDS011;4358;42.100;25.222;2024-02-21T06:29:32;50.97;;;33.90;;
8640;SDS011;4358;42.100;25.222;2024-02-21T06:31:59;45.37;;;31.80;;
8640;SDS011;4358;42.100;25.222;2024-02-21T06:34:26;44.43;;;30.50;;
8640;SDS011;4358;42.100;25.222;2024-02-21T06:36:53;48.67;;;30.47;;
8640;SDS011;4358;42.100;25.222;2024-02-21T06:39:20;51.63;;;30.50;;
8640;SDS011;4358;42.100;25.222;2024-02-21T06:41:49;44.87;;;29.20;;
8640;SDS011;4358;42.100;25.222;2024-02-21T06:44:18;51.27;;;31.00;;
8640;SDS011;4358;42.100;25.222;2024-02-21T06:46:44;52.10;;;33.23;;
8640;SDS011;4358;42.100;25.222;2024-02-21T06:49:11;51.30;;;33.87;;
8640;SDS011;4358;42.100;25.222;2024-02-21T06:51:41;51.17;;;34.17;;
8640;SDS011;4358;42.100;25.222;2024-02-21T06:54:08;56.50;;;36.07;;
8640;SDS011;4358;42.100;25.222;2024-02-21T06:56:35;59.53;;;36.77;;
8640;SDS011;4358;42.100;25.222;2024-02-21T06:59:04;55.03;;;37.37;;
8640;SDS011;4358;42.100;25.222;2024-02-21T07:01:31;62.50;;;39.83;;
8640;SDS011;4358;42.100;25.222;2024-02-21T07:03:58;60.20;;;39.17;;
8640;SDS011;4358;42.100;25.222;2024-02-21T07:06:25;57.20;;;36.73;;
8640;SDS011;4358;42.100;25.222;2024-02-21T07:08:52;58.63;;;36.33;;
8640;SDS011;4358;42.100;25.222;2024-02-21T07:11:18;54.37;;;35.77;;
8640;SDS011;4358;42.100;25.222;2024-02-21T07:13:45;52.23;;;36.23;;
8640;SDS011;4358;42.100;25.222;2024-02-21T07:16:13;54.13;;;36.10;;
8640;SDS011;4358;42.100;25.222;2024-02-21T07:18:40;50.80;;;34.20;;
8640;SDS011;4358;42.100;25.222;2024-02-21T07:21:07;55.37;;;34.50;;
8640;SDS011;4358;42.100;25.222;2024-02-21T07:23:34;52.47;;;34.93;;
8640;SDS011;4358;42.100;25.222;2024-02-21T07:26:01;75.97;;;33.70;;
8640;SDS011;4358;42.100;25.222;2024-02-21T07:28:28;54.07;;;33.50;;
8640;SDS011;4358;42.100;25.222;2024-02-21T07:30:54;39.63;;;22.97;;
8640;SDS011;4358;42.100;25.222;2024-02-21T07:33:23;42.37;;;26.20;;
8640;SDS011;4358;42.100;25.222;2024-02-21T07:35:49;32.83;;;20.70;;
8640;SDS011;4358;42.100;25.222;2024-02-21T07:38:16;31.27;;;21.57;;
8640;SDS011;4358;42.100;25.222;2024-02-21T07:40:44;33.83;;;22.53;;
8640;SDS011;4358;42.100;25.222;2024-02-21T07:43:10;40.20;;;25.10;;
8640;SDS011;4358;42.100;25.222;2024-02-21T07:45:37;35.70;;;22.53;;
8640;SDS011;4358;42.100;25.222;2024-02-21T07:48:05;30.60;;;20.03;;
8640;SDS011;4358;42.100;25.222;2024-02-21T07:50:33;31.77;;;19.67;;
8640;SDS011;4358;42.100;25.222;2024-02-21T07:53:00;27.67;;;18.97;;
8640;SDS011;4358;42.100;25.222;2024-02-21T07:55:27;29.87;;;20.30;;
8640;SDS011;4358;42.100;25.222;2024-02-21T07:57:54;33.43;;;20.03;;
8640;SDS011;4358;42.100;25.222;2024-02-21T08:00:21;28.17;;;19.10;;
8640;SDS011;4358;42.100;25.222;2024-02-21T08:02:48;28.50;;;20.07;;
8640;SDS011;4358;42.100;25.222;2024-02-21T08:05:15;28.83;;;18.97;;
8640;SDS011;4358;42.100;25.222;2024-02-21T08:07:43;33.47;;;19.83;;
8640;SDS011;4358;42.100;25.222;2024-02-21T08:10:10;44.40;;;20.10;;
8640;SDS011;4358;42.100;25.222;2024-02-21T08:12:37;24.83;;;18.83;;
8640;SDS011;4358;42.100;25.222;2024-02-21T08:15:05;28.77;;;18.87;;
8640;SDS011;4358;42.100;25.222;2024-02-21T08:17:33;26.10;;;18.53;;
8640;SDS011;4358;42.100;25.222;2024-02-21T08:20:00;34.43;;;20.20;;
8640;SDS011;4358;42.100;25.222;2024-02-21T08:22:28;27.70;;;18.87;;
8640;SDS011;4358;42.100;25.222;2024-02-21T08:24:56;26.07;;;18.87;;
8640;SDS011;4358;42.100;25.222;2024-02-21T08:27:23;27.77;;;20.23;;
8640;SDS011;4358;42.100;25.222;2024-02-21T08:29:50;40.63;;;21.07;;
8640;SDS011;4358;42.100;25.222;2024-02-21T08:32:17;30.23;;;21.03;;
8640;SDS011;4358;42.100;25.222;2024-02-21T08:34:43;28.73;;;20.40;;
8640;SDS011;4358;42.100;25.222;2024-02-21T08:37:10;41.83;;;22.57;;
8640;SDS011;4358;42.100;25.222;2024-02-21T08:39:37;29.00;;;20.10;;
8640;SDS011;4358;42.100;25.222;2024-02-21T08:42:05;32.40;;;21.93;;
8640;SDS011;4358;42.100;25.222;2024-02-21T08:44:32;53.80;;;22.67;;
8640;SDS011;4358;42.100;25.222;2024-02-21T08:46:59;38.80;;;20.10;;
8640;SDS011;4358;42.100;25.222;2024-02-21T08:49:29;29.40;;;20.20;;
8640;SDS011;4358;42.100;25.222;2024-02-21T08:51:56;24.73;;;18.13;;
8640;SDS011;4358;42.100;25.222;2024-02-21T08:54:23;33.83;;;19.67;;
8640;SDS011;4358;42.100;25.222;2024-02-21T08:56:50;25.43;;;17.40;;
8640;SDS011;4358;42.100;25.222;2024-02-21T08:59:18;26.10;;;18.77;;
8640;SDS011;4358;42.100;25.222;2024-02-21T09:01:46;30.10;;;19.37;;
8640;SDS011;4358;42.100;25.222;2024-02-21T09:04:13;27.63;;;19.80;;
8640;SDS011;4358;42.100;25.222;2024-02-21T09:06:39;45.27;;;20.07;;
8640;SDS011;4358;42.100;25.222;2024-02-21T09:09:07;26.80;;;18.90;;
8640;SDS011;4358;42.100;25.222;2024-02-21T09:11:36;27.60;;;19.13;;
8640;SDS011;4358;42.100;25.222;2024-02-21T09:14:02;26.73;;;17.80;;
8640;SDS011;4358;42.100;25.222;2024-02-21T09:16:31;23.97;;;17.23;;
8640;SDS011;4358;42.100;25.222;2024-02-21T09:18:58;25.00;;;17.77;;
8640;SDS011;4358;42.100;25.222;2024-02-21T09:21:25;26.73;;;17.53;;
8640;SDS011;4358;42.100;25.222;2024-02-21T09:23:53;30.43;;;18.00;;
8640;SDS011;4358;42.100;25.222;2024-02-21T09:26:20;22.17;;;17.23;;
8640;SDS011;4358;42.100;25.222;2024-02-21T09:28:46;24.37;;;17.87;;
8640;SDS011;4358;42.100;25.222;2024-02-21T09:31:13;24.13;;;17.63;;
8640;SDS011;4358;42.100;25.222;2024-02-21T09:33:41;23.87;;;16.37;;
8640;SDS011;4358;42.100;25.222;2024-02-21T09:36:08;19.53;;;15.83;;
8640;SDS011;4358;42.100;25.222;2024-02-21T09:38:36;23.40;;;16.30;;
8640;SDS011;4358;42.100;25.222;2024-02-21T09:41:06;21.87;;;15.83;;
8640;SDS011;4358;42.100;25.222;2024-02-21T09:43:41;26.93;;;16.20;;
8640;SDS011;4358;42.100;25.222;2024-02-21T09:46:08;17.53;;;14.10;;
8640;SDS011;4358;42.100;25.222;2024-02-21T09:48:45;17.90;;;14.20;;
8640;SDS011;4358;42.100;25.222;2024-02-21T09:51:26;18.67;;;14.40;;
8640;SDS011;4358;42.100;25.222;2024-02-21T09:53:56;18.23;;;14.60;;
8640;SDS011;4358;42.100;25.222;2024-02-21T09:56:23;14.57;;;10.73;;
8640;SDS011;4358;42.100;25.222;2024-02-21T09:58:50;13.73;;;10.87;;
8640;SDS011;4358;42.100;25.222;2024-02-21T10:01:17;14.40;;;11.30;;
8640;SDS011;4358;42.100;25.222;2024-02-21T10:03:45;17.17;;;12.23;;
8640;SDS011;4358;42.100;25.222;2024-02-21T10:06:12;14.27;;;11.30;;
8640;SDS011;4358;42.100;25.222;2024-02-21T10:08:39;14.60;;;11.40;;
8640;SDS011;4358;42.100;25.222;2024-02-21T10:11:06;11.53;;;9.83;;
8640;SDS011;4358;42.100;25.222;2024-02-21T10:13:34;11.20;;;10.00;;
8640;SDS011;4358;42.100;25.222;2024-02-21T10:16:03;16.47;;;10.43;;
8640;SDS011;4358;42.100;25.222;2024-02-21T10:18:31;14.40;;;9.90;;
8640;SDS011;4358;42.100;25.222;2024-02-21T10:21:03;11.87;;;9.10;;
8640;SDS011;4358;42.100;25.222;2024-02-21T10:23:40;12.67;;;10.23;;
8640;SDS011;4358;42.100;25.222;2024-02-21T10:26:10;11.77;;;9.40;;
8640;SDS011;4358;42.100;25.222;2024-02-21T10:28:37;16.70;;;9.20;;
8640;SDS011;4358;42.100;25.222;2024-02-21T10:31:07;11.43;;;9.00;;
8640;SDS011;4358;42.100;25.222;2024-02-21T10:33:34;11.23;;;8.83;;
8640;SDS011;4358;42.100;25.222;2024-02-21T10:36:10;11.37;;;8.23;;
8640;SDS011;4358;42.100;25.222;2024-02-21T10:38:37;11.30;;;8.07;;
8640;SDS011;4358;42.100;25.222;2024-02-21T10:41:04;9.97;;;8.40;;
8640;SDS011;4358;42.100;25.222;2024-02-21T10:43:35;10.37;;;7.57;;
8640;SDS011;4358;42.100;25.222;2024-02-21T10:46:06;14.90;;;8.00;;
8640;SDS011;4358;42.100;25.222;2024-02-21T10:48:38;8.53;;;7.10;;
8640;SDS011;4358;42.100;25.222;2024-02-21T10:51:12;9.17;;;6.80;;
8640;SDS011;4358;42.100;25.222;2024-02-21T10:53:44;9.03;;;5.90;;
8640;SDS011;4358;42.100;25.222;2024-02-21T10:56:16;7.00;;;6.30;;
8640;SDS011;4358;42.100;25.222;2024-02-21T10:58:49;7.37;;;6.37;;
8640;SDS011;4358;42.100;25.222;2024-02-21T11:01:17;21.33;;;7.50;;
8640;SDS011;4358;42.100;25.222;2024-02-21T11:03:45;8.77;;;7.17;;
8640;SDS011;4358;42.100;25.222;2024-02-21T11:06:15;11.60;;;6.80;;
8640;SDS011;4358;42.100;25.222;2024-02-21T11:08:44;7.10;;;5.70;;
8640;SDS011;4358;42.100;25.222;2024-02-21T11:11:12;7.30;;;5.27;;
8640;SDS011;4358;42.100;25.222;2024-02-21T11:13:42;18.37;;;10.50;;
8640;SDS011;4358;42.100;25.222;2024-02-21T11:16:11;6.57;;;5.90;;
8640;SDS011;4358;42.100;25.222;2024-02-21T11:18:47;6.43;;;5.67;;
8640;SDS011;4358;42.100;25.222;2024-02-21T11:21:16;5.47;;;4.93;;
8640;SDS011;4358;42.100;25.222;2024-02-21T11:23:43;8.67;;;5.70;;
8640;SDS011;4358;42.100;25.222;2024-02-21T11:26:10;7.60;;;5.33;;
8640;SDS011;4358;42.100;25.222;2024-02-21T11:28:37;20.03;;;6.40;;
8640;SDS011;4358;42.100;25.222;2024-02-21T11:31:07;10.83;;;5.90;;
8640;SDS011;4358;42.100;25.222;2024-02-21T11:33:33;15.90;;;6.70;;
8640;SDS011;4358;42.100;25.222;2024-02-21T11:36:00;9.00;;;5.63;;
8640;SDS011;4358;42.100;25.222;2024-02-21T11:38:30;6.83;;;5.20;;
8640;SDS011;4358;42.100;25.222;2024-02-21T11:40:57;8.87;;;4.90;;
8640;SDS011;4358;42.100;25.222;2024-02-21T11:43:24;6.20;;;5.47;;
8640;SDS011;4358;42.100;25.222;2024-02-21T11:45:58;5.33;;;4.60;;
8640;SDS011;4358;42.100;25.222;2024-02-21T11:48:25;5.57;;;4.73;;
8640;SDS011;4358;42.100;25.222;2024-02-21T11:50:53;6.03;;;4.73;;
8640;SDS011;4358;42.100;25.222;2024-02-21T11:53:21;4.93;;;4.33;;
8640;SDS011;4358;42.100;25.222;2024-02-21T11:55:49;14.00;;;5.10;;
8640;SDS011;4358;42.100;25.222;2024-02-21T11:58:16;9.43;;;4.60;;
8640;SDS011;4358;42.100;25.222;2024-02-21T12:00:43;11.17;;;5.73;;
8640;SDS011;4358;42.100;25.222;2024-02-21T12:03:10;6.10;;;4.57;;
8640;SDS011;4358;42.100;25.222;2024-02-21T12:05:36;11.77;;;4.40;;
8640;SDS011;4358;42.100;25.222;2024-02-21T12:08:03;5.73;;;4.10;;
8640;SDS011;4358;42.100;25.222;2024-02-21T12:10:31;5.73;;;4.27;;
8640;SDS011;4358;42.100;25.222;2024-02-21T12:13:09;5.30;;;3.87;;
8640;SDS011;4358;42.100;25.222;2024-02-21T12:15:35;4.73;;;3.67;;
8640;SDS011;4358;42.100;25.222;2024-02-21T12:18:02;16.10;;;4.90;;
8640;SDS011;4358;42.100;25.222;2024-02-21T12:20:30;4.33;;;3.80;;
8640;SDS011;4358;42.100;25.222;2024-02-21T12:22:59;5.13;;;3.87;;
8640;SDS011;4358;42.100;25.222;2024-02-21T12:25:26;5.13;;;3.87;;
8640;SDS011;4358;42.100;25.222;2024-02-21T12:27:54;5.67;;;3.77;;
8640;SDS011;4358;42.100;25.222;2024-02-21T12:30:23;4.10;;;3.57;;
8640;SDS011;4358;42.100;25.222;2024-02-21T12:32:49;4.43;;;4.00;;
8640;SDS011;4358;42.100;25.222;2024-02-21T12:35:16;13.20;;;4.33;;
8640;SDS011;4358;42.100;25.222;2024-02-21T12:37:44;4.03;;;3.57;;
8640;SDS011;4358;42.100;25.222;2024-02-21T12:40:11;6.67;;;3.97;;
8640;SDS011;4358;42.100;25.222;2024-02-21T12:42:39;10.13;;;4.50;;
8640;SDS011;4358;42.100;25.222;2024-02-21T12:45:07;5.47;;;4.77;;
8640;SDS011;4358;42.100;25.222;2024-02-21T12:47:35;4.43;;;3.80;;
8640;SDS011;4358;42.100;25.222;2024-02-21T12:50:04;4.50;;;3.93;;
8640;SDS011;4358;42.100;25.222;2024-02-21T12:52:32;3.77;;;3.43;;
8640;SDS011;4358;42.100;25.222;2024-02-21T12:55:04;4.47;;;3.87;;
8640;SDS011;4358;42.100;25.222;2024-02-21T12:57:31;24.17;;;5.10;;
8640;SDS011;4358;42.100;25.222;2024-02-21T12:59:58;33.77;;;5.80;;
8640;SDS011;4358;42.100;25.222;2024-02-21T13:02:25;15.03;;;4.50;;
8640;SDS011;4358;42.100;25.222;2024-02-21T13:04:53;4.20;;;3.47;;
8640;SDS011;4358;42.100;25.222;2024-02-21T13:07:20;2.90;;;2.70;;
8640;SDS011;4358;42.100;25.222;2024-02-21T13:09:47;4.20;;;3.20;;
8640;SDS011;4358;42.100;25.222;2024-02-21T13:12:13;3.90;;;3.50;;
8640;SDS011;4358;42.100;25.222;2024-02-21T13:14:40;3.90;;;3.27;;
8640;SDS011;4358;42.100;25.222;2024-02-21T13:17:09;12.83;;;4.47;;
8640;SDS011;4358;42.100;25.222;2024-02-21T13:19:35;20.83;;;5.17;;
8640;SDS011;4358;42.100;25.222;2024-02-21T13:22:04;17.43;;;3.73;;
8640;SDS011;4358;42.100;25.222;2024-02-21T13:24:30;7.37;;;3.60;;
8640;SDS011;4358;42.100;25.222;2024-02-21T13:26:57;3.53;;;2.67;;
8640;SDS011;4358;42.100;25.222;2024-02-21T13:29:24;4.07;;;3.47;;
8640;SDS011;4358;42.100;25.222;2024-02-21T13:31:51;4.53;;;3.30;;
8640;SDS011;4358;42.100;25.222;2024-02-21T13:34:18;4.37;;;3.43;;
8640;SDS011;4358;42.100;25.222;2024-02-21T13:36:45;3.90;;;3.30;;
8640;SDS011;4358;42.100;25.222;2024-02-21T13:39:13;4.77;;;3.40;;
8640;SDS011;4358;42.100;25.222;2024-02-21T13:41:41;8.20;;;3.60;;
8640;SDS011;4358;42.100;25.222;2024-02-21T13:44:08;3.43;;;3.13;;
8640;SDS011;4358;42.100;25.222;2024-02-21T13:46:35;10.90;;;3.57;;
8640;SDS011;4358;42.100;25.222;2024-02-21T13:49:03;8.13;;;4.47;;
8640;SDS011;4358;42.100;25.222;2024-02-21T13:51:31;6.23;;;3.50;;
8640;SDS011;4358;42.100;25.222;2024-02-21T13:53:59;4.20;;;3.13;;
8640;SDS011;4358;42.100;25.222;2024-02-21T13:56:28;3.73;;;3.17;;
8640;SDS011;4358;42.100;25.222;2024-02-21T13:58:54;4.07;;;3.27;;
8640;SDS011;4358;42.100;25.222;2024-02-21T14:01:21;3.70;;;3.40;;
8640;SDS011;4358;42.100;25.222;2024-02-21T14:03:48;8.03;;;3.90;;
8640;SDS011;4358;42.100;25.222;2024-02-21T14:06:15;4.10;;;3.70;;
8640;SDS011;4358;42.100;25.222;2024-02-21T14:08:42;3.93;;;3.30;;
8640;SDS011;4358;42.100;25.222;2024-02-21T14:11:09;3.47;;;3.13;;
8640;SDS011;4358;42.100;25.222;2024-02-21T14:13:37;6.50;;;3.43;;
8640;SDS011;4358;42.100;25.222;2024-02-21T14:16:08;3.73;;;3.33;;
8640;SDS011;4358;42.100;25.222;2024-02-21T14:18:37;3.47;;;3.13;;
8640;SDS011;4358;42.100;25.222;2024-02-21T14:21:06;4.90;;;3.27;;
8640;SDS011;4358;42.100;25.222;2024-02-21T14:23:33;11.90;;;3.63;;
8640;SDS011;4358;42.100;25.222;2024-02-21T14:25:59;7.17;;;3.60;;
8640;SDS011;4358;42.100;25.222;2024-02-21T14:28:26;4.73;;;3.40;;
8640;SDS011;4358;42.100;25.222;2024-02-21T14:30:54;3.87;;;3.47;;
8640;SDS011;4358;42.100;25.222;2024-02-21T14:33:22;3.33;;;3.03;;
8640;SDS011;4358;42.100;25.222;2024-02-21T14:35:50;4.47;;;3.43;;
8640;SDS011;4358;42.100;25.222;2024-02-21T14:38:17;8.97;;;3.80;;
8640;SDS011;4358;42.100;25.222;2024-02-21T14:40:44;5.50;;;3.67;;
8640;SDS011;4358;42.100;25.222;2024-02-21T14:43:11;3.93;;;3.30;;